GIJÓN CAMPUS, ASTURIAS

latitud = 43° 31' 23''N | Longitud = 005° 37' 16''W
26 metros sobre el nivel del mar | datos mensuales

Fecha, hora, temperatura, viento dirección y velocidad, humedad y presión.

  • 14-10-2018 19:00:00 | 15.10°C | Oeste |9.00 km/h | 84.00% | 1007.40 hPa
  • 14-10-2018 18:00:00 | 16.10°C | Noroeste |13.00 km/h | 78.00% | 1007.20 hPa
  • 14-10-2018 17:00:00 | 15.80°C | Noroeste |10.00 km/h | 84.00% | 1007.10 hPa
  • 14-10-2018 16:00:00 | 15.20°C | Sur |5.00 km/h | 85.00% | 1006.70 hPa
  • 14-10-2018 15:00:00 | 16.20°C | Sudoeste |7.00 km/h | 73.00% | 1006.60 hPa
  • 14-10-2018 14:00:00 | 15.10°C | Sudoeste |9.00 km/h | 74.00% | 1006.70 hPa
  • 14-10-2018 13:00:00 | 13.40°C | Sudoeste |9.00 km/h | 80.00% | 1006.70 hPa
  • 14-10-2018 12:00:00 | 12.50°C | Sudoeste |7.00 km/h | 86.00% | 1006.80 hPa
  • 14-10-2018 11:00:00 | 12.40°C | Sudoeste |10.00 km/h | 86.00% | 1006.40 hPa
  • 14-10-2018 10:00:00 | 12.00°C | Sudoeste |9.00 km/h | 92.00% | 1005.40 hPa
  • 14-10-2018 09:00:00 | 11.80°C | Sudoeste |6.00 km/h | 95.00% | 1004.80 hPa
  • 14-10-2018 08:00:00 | 12.30°C | Oeste |11.00 km/h | 94.00% | 1003.90 hPa
  • 14-10-2018 07:00:00 | 13.10°C | Sudoeste |9.00 km/h | 95.00% | 1002.10 hPa
  • 14-10-2018 06:00:00 | 13.60°C | Oeste |5.00 km/h | 98.00% | 1000.70 hPa
  • 14-10-2018 05:00:00 | 13.70°C | Sudoeste |4.00 km/h | 98.00% | 1000.90 hPa
  • 14-10-2018 04:00:00 | 13.60°C | Sudeste |4.00 km/h | 98.00% | 1001.50 hPa
  • 14-10-2018 03:00:00 | 13.90°C | Sudeste |3.00 km/h | 97.00% | 1002.30 hPa
  • 14-10-2018 02:00:00 | 14.50°C | Oeste |5.00 km/h | 95.00% | 1003.50 hPa
  • 14-10-2018 01:00:00 | 15.20°C | Oeste |8.00 km/h | 94.00% | 1004.40 hPa
  • 14-10-2018 00:00:00 | 16.90°C | Oeste |5.00 km/h | 93.00% | 1003.90 hPa
  • 13-10-2018 23:00:00 | 17.90°C | Noroeste |10.00 km/h | 87.00% | 1003.80 hPa
  • 13-10-2018 22:00:00 | 18.70°C | Oeste |9.00 km/h | 83.00% | 1004.40 hPa
  • 13-10-2018 21:00:00 | 21.00°C | Sudoeste |3.00 km/h | 67.00% | 1002.20 hPa
  • 13-10-2018 20:00:00 | 23.80°C | Sudeste |3.00 km/h | 56.00% | 1003.40 hPa
    • Gijón hora a hora, datos reales de la temperatura, viento dirección, velocidad, más la humedad relativa y presión atmosférica.
      La estación meteorológica del Campus de Viesques de Gijón hora a hora, mes a mes, año a año; presentada de una forma gráfica, datos recogidos desde el mes de enero del año 2014. Recomendamos un ordenador de sobremesa: https://meteorologia.tike10.com/asturias-gijon.php